Time;durP1;ratioP1;P1;durP2;ratioP2;P2;SDS_P1;SDS_P2;PMS_P1;PMS_P2;Temp;Humidity;BMP_temperature;BMP_pressure;BME280_temperature;BME280_humidity;BME280_pressure;Samples;Min_cycle;Max_cycle;Signal;HPM_P1;HPM_P2
2023/04/25 00:00:08;;;;;;;0.45;0.45;;;;;;;;;;4950949;28;20028;-86
2023/04/25 00:02:34;;;;;;;0.25;0.25;;;;;;;;;;4941389;28;20114;-86
2023/04/25 00:05:01;;;;;;;1.38;0.70;;;;;;;;;;4948100;28;20043;-87
2023/04/25 00:07:27;;;;;;;0.30;0.30;;;;;;;;;;4949763;28;20644;-87
2023/04/25 00:09:53;;;;;;;1.00;0.77;;;;;;;;;;4947723;28;20122;-86
2023/04/25 00:12:19;;;;;;;0.82;0.50;;;;;;;;;;4949859;29;20037;-86
2023/04/25 00:14:46;;;;;;;0.30;0.30;;;;;;;;;;4938930;28;20378;-86
2023/04/25 00:17:12;;;;;;;1.27;0.43;;;;;;;;;;4949665;28;20019;-86
2023/04/25 00:19:38;;;;;;;0.45;0.45;;;;;;;;;;4948074;28;20036;-85
2023/04/25 00:22:05;;;;;;;0.47;0.40;;;;;;;;;;4942086;28;20031;-86
2023/04/25 00:24:31;;;;;;;0.38;0.38;;;;;;;;;;4946882;28;20508;-87
2023/04/25 00:26:57;;;;;;;0.73;0.45;;;;;;;;;;4947698;29;20019;-87
2023/04/25 00:29:23;;;;;;;0.40;0.35;;;;;;;;;;4944951;28;20498;-85
2023/04/25 00:31:49;;;;;;;0.60;0.50;;;;;;;;;;4940233;28;20047;-86
2023/04/25 00:34:15;;;;;;;0.55;0.55;;;;;;;;;;4943451;28;20098;-86
2023/04/25 00:36:41;;;;;;;0.30;0.30;;;;;;;;;;4935281;28;20031;-87
2023/04/25 00:39:07;;;;;;;0.40;0.40;;;;;;;;;;4946518;28;20027;-86
2023/04/25 00:41:33;;;;;;;0.55;0.52;;;;;;;;;;4943288;28;20023;-85
2023/04/25 00:44:00;;;;;;;0.40;0.40;;;;;;;;;;4925786;28;20512;-87
2023/04/25 00:46:26;;;;;;;0.98;0.68;;;;;;;;;;4942143;28;20102;-86
2023/04/25 00:48:52;;;;;;;1.60;0.47;;;;;;;;;;4947826;28;20497;-87
2023/04/25 00:51:20;;;;;;;0.50;0.50;;;;;;;;;;4951507;28;20030;-86
2023/04/25 00:53:47;;;;;;;0.30;0.30;;;;;;;;;;4948940;28;20028;-86
2023/04/25 00:56:13;;;;;;;0.30;0.30;;;;;;;;;;4951587;28;20023;-85
2023/04/25 00:58:39;;;;;;;1.30;0.30;;;;;;;;;;4953721;28;20028;-86
2023/04/25 01:01:06;;;;;;;0.75;0.60;;;;;;;;;;4944567;28;20036;-86
2023/04/25 01:03:35;;;;;;;1.75;0.38;;;;;;;;;;4950650;28;20031;-87
2023/04/25 01:06:01;;;;;;;0.47;0.43;;;;;;;;;;4946274;28;20055;-85
2023/04/25 01:08:27;;;;;;;0.47;0.45;;;;;;;;;;4947814;28;20143;-85
2023/04/25 01:10:53;;;;;;;0.30;0.30;;;;;;;;;;4934834;29;20038;-86
2023/04/25 01:13:19;;;;;;;0.40;0.40;;;;;;;;;;4947928;28;20027;-86
2023/04/25 01:15:45;;;;;;;1.05;0.93;;;;;;;;;;4941700;28;20725;-87
2023/04/25 01:18:12;;;;;;;0.55;0.55;;;;;;;;;;4952787;28;20114;-87
2023/04/25 01:20:39;;;;;;;1.17;0.55;;;;;;;;;;4952314;28;20115;-86
2023/04/25 01:23:05;;;;;;;0.50;0.50;;;;;;;;;;4948365;28;20020;-85
2023/04/25 01:25:32;;;;;;;0.70;0.40;;;;;;;;;;4939350;28;20034;-85
2023/04/25 01:27:58;;;;;;;0.40;0.40;;;;;;;;;;4950591;28;20553;-86
2023/04/25 01:30:25;;;;;;;1.88;0.75;;;;;;;;;;4950056;28;20035;-86
2023/04/25 01:32:51;;;;;;;0.95;0.50;;;;;;;;;;4951648;28;20501;-85
2023/04/25 01:35:17;;;;;;;0.88;0.65;;;;;;;;;;4951983;28;20031;-86
2023/04/25 01:37:43;;;;;;;0.40;0.40;;;;;;;;;;4951569;28;20620;-86
2023/04/25 01:40:11;;;;;;;0.57;0.50;;;;;;;;;;4955882;28;20031;-86
2023/04/25 01:42:38;;;;;;;0.80;0.80;;;;;;;;;;4947037;28;20066;-86
2023/04/25 01:45:05;;;;;;;0.60;0.60;;;;;;;;;;4950931;28;20019;-85
2023/04/25 01:47:30;;;;;;;2.53;0.50;;;;;;;;;;4949358;28;20057;-86
2023/04/25 01:49:56;;;;;;;1.35;0.50;;;;;;;;;;4932679;29;20389;-87
2023/04/25 01:52:22;;;;;;;0.63;0.63;;;;;;;;;;4954662;28;20035;-87
2023/04/25 01:54:49;;;;;;;0.30;0.30;;;;;;;;;;4951193;28;20119;-87
2023/04/25 01:57:15;;;;;;;0.63;0.50;;;;;;;;;;4948270;28;20118;-86
2023/04/25 01:59:41;;;;;;;0.70;0.57;;;;;;;;;;4952033;28;20035;-85
2023/04/25 02:02:07;;;;;;;1.38;0.50;;;;;;;;;;4945291;28;20031;-86
2023/04/25 02:04:33;;;;;;;0.55;0.40;;;;;;;;;;4949985;28;20058;-85
2023/04/25 02:06:59;;;;;;;0.40;0.40;;;;;;;;;;4946113;28;20035;-87
2023/04/25 02:09:25;;;;;;;0.50;0.50;;;;;;;;;;4945007;28;20118;-85
2023/04/25 02:11:51;;;;;;;0.50;0.50;;;;;;;;;;4949678;28;20748;-86
2023/04/25 02:14:17;;;;;;;0.60;0.60;;;;;;;;;;4952123;28;20026;-87
2023/04/25 02:16:43;;;;;;;0.60;0.60;;;;;;;;;;4950531;28;20047;-86
2023/04/25 02:19:10;;;;;;;0.45;0.40;;;;;;;;;;4950242;28;20023;-85
2023/04/25 02:21:36;;;;;;;1.92;1.08;;;;;;;;;;4946881;28;20133;-85
2023/04/25 02:24:03;;;;;;;0.40;0.40;;;;;;;;;;4948449;28;20031;-86
2023/04/25 02:26:29;;;;;;;0.45;0.45;;;;;;;;;;4947872;28;20058;-86
2023/04/25 02:28:55;;;;;;;13.35;1.20;;;;;;;;;;4930416;29;20039;-87
2023/04/25 02:31:21;;;;;;;0.50;0.50;;;;;;;;;;4949439;28;20094;-86
2023/04/25 02:33:48;;;;;;;0.63;0.40;;;;;;;;;;4948996;28;20038;-85
2023/04/25 02:36:14;;;;;;;0.30;0.30;;;;;;;;;;4942118;28;20036;-86
2023/04/25 02:38:40;;;;;;;0.65;0.65;;;;;;;;;;4948172;28;20023;-86
2023/04/25 02:41:06;;;;;;;1.10;0.60;;;;;;;;;;4951257;28;20027;-85
2023/04/25 02:43:32;;;;;;;0.90;0.40;;;;;;;;;;4950383;28;20046;-86
2023/04/25 02:45:58;;;;;;;1.60;0.90;;;;;;;;;;4949678;28;20031;-86
2023/04/25 02:48:24;;;;;;;0.40;0.40;;;;;;;;;;4946068;28;20037;-86
2023/04/25 02:50:50;;;;;;;0.50;0.38;;;;;;;;;;4948258;28;20035;-87
2023/04/25 02:53:16;;;;;;;0.30;0.30;;;;;;;;;;4944998;28;20561;-86
2023/04/25 02:55:42;;;;;;;0.60;0.60;;;;;;;;;;4944395;28;20378;-85
2023/04/25 02:58:08;;;;;;;0.50;0.50;;;;;;;;;;4923325;29;20055;-85
2023/04/25 03:00:34;;;;;;;0.98;0.43;;;;;;;;;;4945356;28;20020;-86
2023/04/25 03:03:00;;;;;;;1.95;1.17;;;;;;;;;;4949359;28;20023;-86
2023/04/25 03:05:26;;;;;;;0.73;0.55;;;;;;;;;;4947600;28;20079;-86
2023/04/25 03:07:52;;;;;;;0.57;0.57;;;;;;;;;;4946511;28;20390;-85
2023/04/25 03:10:18;;;;;;;0.52;0.52;;;;;;;;;;4945403;28;20020;-85
2023/04/25 03:12:44;;;;;;;0.35;0.35;;;;;;;;;;4949956;28;20407;-87
2023/04/25 03:15:10;;;;;;;1.55;0.50;;;;;;;;;;4927792;29;20222;-85
2023/04/25 03:17:36;;;;;;;0.85;0.60;;;;;;;;;;4951379;28;20150;-85
2023/04/25 03:20:03;;;;;;;0.50;0.50;;;;;;;;;;4949559;28;20065;-86
2023/04/25 03:22:29;;;;;;;2.42;0.55;;;;;;;;;;4945846;28;20110;-86
2023/04/25 03:24:55;;;;;;;0.73;0.68;;;;;;;;;;4944057;28;20039;-85
2023/04/25 03:27:21;;;;;;;2.92;1.08;;;;;;;;;;4947530;28;20090;-85
2023/04/25 03:29:47;;;;;;;0.35;0.35;;;;;;;;;;4941727;28;20114;-84
2023/04/25 03:32:13;;;;;;;1.20;0.50;;;;;;;;;;4947320;28;20062;-85
2023/04/25 03:34:39;;;;;;;0.65;0.63;;;;;;;;;;4946827;28;20505;-87
2023/04/25 03:37:05;;;;;;;0.60;0.50;;;;;;;;;;4929617;29;20490;-87
2023/04/25 03:39:31;;;;;;;0.50;0.50;;;;;;;;;;4929187;29;20015;-85
2023/04/25 03:41:57;;;;;;;0.40;0.40;;;;;;;;;;4933175;29;20031;-87
2023/04/25 03:44:24;;;;;;;0.55;0.43;;;;;;;;;;4946611;28;20035;-86
2023/04/25 03:46:50;;;;;;;0.43;0.43;;;;;;;;;;4941535;28;20054;-85
2023/04/25 03:49:16;;;;;;;0.57;0.50;;;;;;;;;;4942896;28;20410;-85
2023/04/25 03:51:42;;;;;;;0.52;0.52;;;;;;;;;;4924813;29;20663;-86
2023/04/25 03:54:08;;;;;;;0.45;0.45;;;;;;;;;;4942618;28;20020;-86
2023/04/25 03:56:34;;;;;;;0.90;0.60;;;;;;;;;;4941550;28;20465;-85
2023/04/25 03:59:00;;;;;;;1.10;0.50;;;;;;;;;;4943335;28;20026;-85
2023/04/25 04:01:26;;;;;;;0.52;0.38;;;;;;;;;;4945402;28;20034;-84
2023/04/25 04:03:52;;;;;;;0.30;0.30;;;;;;;;;;4942502;28;20030;-86
2023/04/25 04:06:20;;;;;;;2.20;0.75;;;;;;;;;;4928687;29;20031;-86
2023/04/25 04:08:46;;;;;;;0.73;0.50;;;;;;;;;;4942421;28;20039;-84
2023/04/25 04:11:12;;;;;;;0.80;0.60;;;;;;;;;;4942056;28;20027;-85
2023/04/25 04:13:38;;;;;;;1.33;0.60;;;;;;;;;;4940634;28;20031;-86
2023/04/25 04:16:04;;;;;;;1.23;0.60;;;;;;;;;;4942427;28;20714;-78
2023/04/25 04:18:30;;;;;;;0.40;0.40;;;;;;;;;;4948971;28;20050;-76
2023/04/25 04:20:58;;;;;;;0.60;0.57;;;;;;;;;;4948222;28;20053;-76
2023/04/25 04:23:24;;;;;;;1.67;0.50;;;;;;;;;;4948991;28;20386;-77
2023/04/25 04:25:50;;;;;;;0.47;0.47;;;;;;;;;;4949904;28;20035;-76
2023/04/25 04:28:16;;;;;;;0.90;0.85;;;;;;;;;;4945788;28;20074;-75
2023/04/25 04:30:46;;;;;;;0.43;0.43;;;;;;;;;;4944525;28;20034;-75
2023/04/25 04:33:13;;;;;;;1.73;1.07;;;;;;;;;;4950111;28;20023;-77
2023/04/25 04:35:39;;;;;;;0.40;0.40;;;;;;;;;;4948299;28;20441;-82
2023/04/25 04:38:05;;;;;;;1.08;0.77;;;;;;;;;;4939107;28;20244;-83
2023/04/25 04:40:32;;;;;;;1.48;0.73;;;;;;;;;;4940909;28;20431;-83
2023/04/25 04:42:58;;;;;;;4.00;0.60;;;;;;;;;;4940960;28;20049;-82
2023/04/25 04:45:24;;;;;;;0.45;0.45;;;;;;;;;;4940384;28;20019;-82
2023/04/25 04:47:50;;;;;;;4.28;0.50;;;;;;;;;;4950050;28;20039;-81
2023/04/25 04:50:18;;;;;;;0.43;0.43;;;;;;;;;;4946298;28;20031;-83
2023/04/25 04:52:44;;;;;;;1.02;0.50;;;;;;;;;;4941103;28;20090;-84
2023/04/25 04:55:09;;;;;;;0.40;0.40;;;;;;;;;;4944648;28;20110;-81
2023/04/25 04:57:36;;;;;;;1.17;0.80;;;;;;;;;;4943562;28;20024;-82
2023/04/25 05:00:04;;;;;;;3.25;0.63;;;;;;;;;;4954994;28;20035;-82
2023/04/25 05:02:30;;;;;;;0.73;0.57;;;;;;;;;;4939031;28;20106;-84
2023/04/25 05:04:57;;;;;;;0.73;0.57;;;;;;;;;;4949580;28;20200;-81
2023/04/25 05:07:23;;;;;;;0.47;0.47;;;;;;;;;;4948204;28;20182;-83
2023/04/25 05:09:49;;;;;;;0.40;0.40;;;;;;;;;;4943236;28;20039;-77
2023/04/25 05:12:14;;;;;;;0.30;0.30;;;;;;;;;;4946519;28;20032;-79
2023/04/25 05:14:40;;;;;;;2.75;0.52;;;;;;;;;;4932846;28;20446;-79
2023/04/25 05:17:08;;;;;;;0.43;0.43;;;;;;;;;;4942957;28;20062;-80
2023/04/25 05:19:34;;;;;;;0.45;0.45;;;;;;;;;;4933947;28;20479;-80
2023/04/25 05:22:00;;;;;;;2.45;1.00;;;;;;;;;;4939180;28;20031;-81
2023/04/25 05:24:26;;;;;;;0.77;0.50;;;;;;;;;;4940119;28;20027;-81
2023/04/25 05:26:52;;;;;;;0.50;0.50;;;;;;;;;;4945213;28;20089;-80
2023/04/25 05:29:18;;;;;;;0.57;0.47;;;;;;;;;;4938225;28;20053;-79
2023/04/25 05:31:45;;;;;;;0.60;0.60;;;;;;;;;;4947201;28;20024;-80
2023/04/25 05:34:11;;;;;;;0.95;0.50;;;;;;;;;;4949332;28;20027;-81
2023/04/25 05:36:36;;;;;;;1.60;0.80;;;;;;;;;;4951845;28;20174;-79
2023/04/25 05:39:04;;;;;;;0.52;0.52;;;;;;;;;;4952669;28;20034;-79
2023/04/25 05:41:30;;;;;;;1.33;0.60;;;;;;;;;;4952731;28;20061;-78
2023/04/25 05:43:56;;;;;;;0.73;0.63;;;;;;;;;;4959942;28;20425;-78
2023/04/25 05:46:21;;;;;;;1.00;0.50;;;;;;;;;;4933732;28;20027;-79
2023/04/25 05:48:47;;;;;;;1.05;0.68;;;;;;;;;;4939142;28;20027;-77
2023/04/25 05:51:13;;;;;;;0.35;0.35;;;;;;;;;;4952631;28;20035;-79
2023/04/25 05:53:40;;;;;;;0.95;0.85;;;;;;;;;;4950075;28;20030;-81
2023/04/25 05:56:06;;;;;;;1.80;0.93;;;;;;;;;;4940750;28;20020;-80
2023/04/25 05:58:32;;;;;;;0.95;0.73;;;;;;;;;;4945619;28;20082;-79
2023/04/25 06:00:58;;;;;;;0.52;0.52;;;;;;;;;;4952725;28;20397;-80
2023/04/25 06:03:24;;;;;;;0.80;0.60;;;;;;;;;;4952486;28;20023;-80
2023/04/25 06:05:50;;;;;;;5.25;1.35;;;;;;;;;;4950923;28;20066;-80
2023/04/25 06:08:16;;;;;;;1.67;1.10;;;;;;;;;;4943842;28;20039;-80
2023/04/25 06:10:42;;;;;;;1.27;0.63;;;;;;;;;;4946951;28;20055;-81
2023/04/25 06:13:08;;;;;;;0.63;0.63;;;;;;;;;;4946490;28;20023;-80
2023/04/25 06:15:34;;;;;;;0.73;0.73;;;;;;;;;;4929435;29;20082;-81
2023/04/25 06:18:00;;;;;;;1.13;0.60;;;;;;;;;;4952469;28;20031;-81
2023/04/25 06:20:26;;;;;;;1.55;1.08;;;;;;;;;;4945221;29;20028;-81
2023/04/25 06:22:52;;;;;;;2.50;0.85;;;;;;;;;;4939490;28;20114;-81
2023/04/25 06:25:18;;;;;;;0.82;0.82;;;;;;;;;;4940307;28;20337;-80
2023/04/25 06:27:44;;;;;;;1.02;0.85;;;;;;;;;;4948426;28;20466;-81
2023/04/25 06:30:11;;;;;;;2.22;1.13;;;;;;;;;;4951880;28;20024;-80
2023/04/25 06:32:37;;;;;;;1.70;0.77;;;;;;;;;;4951640;28;20390;-82
2023/04/25 06:35:04;;;;;;;2.38;0.82;;;;;;;;;;4935178;29;20043;-81
2023/04/25 06:37:30;;;;;;;0.93;0.85;;;;;;;;;;4951564;28;20544;-81
2023/04/25 06:39:56;;;;;;;1.02;0.90;;;;;;;;;;4944546;28;20054;-81
2023/04/25 06:42:22;;;;;;;0.88;0.80;;;;;;;;;;4920768;28;20023;-81
2023/04/25 06:44:47;;;;;;;1.38;0.80;;;;;;;;;;4949471;28;20046;-81
2023/04/25 06:47:15;;;;;;;0.57;0.57;;;;;;;;;;4944503;28;20020;-81
2023/04/25 06:49:41;;;;;;;5.75;1.05;;;;;;;;;;4951038;28;20062;-80
2023/04/25 06:52:08;;;;;;;1.00;0.60;;;;;;;;;;4942910;28;20027;-80
2023/04/25 06:54:34;;;;;;;3.55;1.08;;;;;;;;;;4945950;28;20110;-80
2023/04/25 06:57:00;;;;;;;3.38;1.10;;;;;;;;;;4947359;28;20038;-81
2023/04/25 06:59:26;;;;;;;1.90;1.52;;;;;;;;;;4949948;28;20034;-81
2023/04/25 07:01:52;;;;;;;0.93;0.77;;;;;;;;;;4948444;28;20125;-81
2023/04/25 07:04:18;;;;;;;0.95;0.60;;;;;;;;;;4948377;28;20039;-81
2023/04/25 07:06:46;;;;;;;2.50;0.63;;;;;;;;;;4949863;28;20035;-79
2023/04/25 07:09:12;;;;;;;0.85;0.85;;;;;;;;;;4948559;28;20038;-78
2023/04/25 07:11:38;;;;;;;1.77;0.95;;;;;;;;;;4948828;28;20039;-81
2023/04/25 07:14:04;;;;;;;1.42;0.80;;;;;;;;;;4946032;28;20027;-81
2023/04/25 07:16:33;;;;;;;0.73;0.60;;;;;;;;;;4948219;28;20058;-79
2023/04/25 07:18:59;;;;;;;0.63;0.60;;;;;;;;;;4948527;28;20038;-78
2023/04/25 07:21:26;;;;;;;2.13;0.70;;;;;;;;;;4939604;28;20038;-81
2023/04/25 07:23:52;;;;;;;1.85;0.90;;;;;;;;;;4948317;28;20027;-85
2023/04/25 07:26:18;;;;;;;2.67;0.52;;;;;;;;;;4941712;28;20047;-80
2023/04/25 07:28:44;;;;;;;1.63;0.90;;;;;;;;;;4948033;28;20035;-84
2023/04/25 07:31:10;;;;;;;2.33;0.88;;;;;;;;;;4946662;28;20024;-84
2023/04/25 07:33:36;;;;;;;0.80;0.77;;;;;;;;;;4949220;28;20490;-80
2023/04/25 07:36:02;;;;;;;1.65;0.80;;;;;;;;;;4945467;28;20034;-90
2023/04/25 07:38:28;;;;;;;0.80;0.77;;;;;;;;;;4948368;28;20064;-79
2023/04/25 07:40:54;;;;;;;1.83;0.63;;;;;;;;;;4942665;28;20020;-87
2023/04/25 07:43:20;;;;;;;1.63;0.88;;;;;;;;;;4935630;28;20671;-85
2023/04/25 07:45:46;;;;;;;1.85;0.82;;;;;;;;;;4944782;28;20035;-85
2023/04/25 07:48:18;;;;;;;1.35;0.88;;;;;;;;;;4954508;28;20476;-83
2023/04/25 07:50:45;;;;;;;0.55;0.50;;;;;;;;;;4950455;28;20114;-86
2023/04/25 07:53:11;;;;;;;4.28;1.13;;;;;;;;;;4950207;28;20031;-86
2023/04/25 07:55:39;;;;;;;1.85;0.70;;;;;;;;;;4939893;28;20405;-88
2023/04/25 07:58:05;;;;;;;0.75;0.47;;;;;;;;;;4940002;28;20019;-87
2023/04/25 08:00:31;;;;;;;0.50;0.50;;;;;;;;;;4928443;28;20033;-88
2023/04/25 08:02:57;;;;;;;1.27;0.63;;;;;;;;;;4942682;28;20027;-85
2023/04/25 08:05:23;;;;;;;1.10;0.70;;;;;;;;;;4944266;28;20383;-86
2023/04/25 08:07:49;;;;;;;0.57;0.57;;;;;;;;;;4949052;28;20759;-85
2023/04/25 08:10:15;;;;;;;6.45;1.02;;;;;;;;;;4943351;28;20040;-85
2023/04/25 08:12:41;;;;;;;0.60;0.60;;;;;;;;;;4944950;28;20054;-84
2023/04/25 08:15:08;;;;;;;1.55;1.13;;;;;;;;;;4943061;28;20082;-85
2023/04/25 08:17:34;;;;;;;2.67;1.00;;;;;;;;;;4948097;28;20031;-84
2023/04/25 08:20:00;;;;;;;1.08;0.80;;;;;;;;;;4946390;28;20037;-85
2023/04/25 08:22:25;;;;;;;1.65;0.85;;;;;;;;;;4952886;28;20039;-84
2023/04/25 08:24:51;;;;;;;0.88;0.57;;;;;;;;;;4946570;28;20664;-82
2023/04/25 08:27:18;;;;;;;5.18;1.38;;;;;;;;;;4949751;28;20121;-85
2023/04/25 08:29:44;;;;;;;0.50;0.50;;;;;;;;;;4947117;28;20118;-85
2023/04/25 08:32:10;;;;;;;2.13;1.05;;;;;;;;;;4947593;28;21009;-87
2023/04/25 08:34:38;;;;;;;0.85;0.80;;;;;;;;;;4950550;28;20046;-87
2023/04/25 08:37:05;;;;;;;1.33;0.75;;;;;;;;;;4960608;28;20023;-87
2023/04/25 08:39:31;;;;;;;1.10;0.52;;;;;;;;;;4958269;28;20027;-84
2023/04/25 08:41:57;;;;;;;0.85;0.80;;;;;;;;;;4951060;28;20058;-80
2023/04/25 08:44:24;;;;;;;1.05;0.60;;;;;;;;;;4957185;28;20063;-88
2023/04/25 08:46:50;;;;;;;2.58;0.98;;;;;;;;;;4955189;28;20027;-89
2023/04/25 08:49:17;;;;;;;1.98;0.90;;;;;;;;;;4943866;29;20027;-89
2023/04/25 08:51:46;;;;;;;7.55;0.80;;;;;;;;;;4930821;29;20028;-83
2023/04/25 08:54:13;;;;;;;9.25;1.05;;;;;;;;;;4961003;28;20023;-87
2023/04/25 08:56:40;;;;;;;1.42;0.88;;;;;;;;;;4956166;28;20334;-84
2023/04/25 08:59:07;;;;;;;2.00;1.10;;;;;;;;;;4935436;29;20028;-85
2023/04/25 09:01:35;;;;;;;2.92;0.93;;;;;;;;;;4954843;28;20034;-89
2023/04/25 09:04:01;;;;;;;1.23;0.73;;;;;;;;;;4941898;28;20035;-84
2023/04/25 09:06:29;;;;;;;1.15;0.95;;;;;;;;;;4957093;28;20031;-84
2023/04/25 09:08:55;;;;;;;0.77;0.47;;;;;;;;;;4955062;28;20046;-93
2023/04/25 09:11:21;;;;;;;1.10;0.70;;;;;;;;;;4962773;28;20046;-90
2023/04/25 09:13:47;;;;;;;1.45;0.88;;;;;;;;;;4933768;29;20023;-89
2023/04/25 09:16:17;;;;;;;0.80;0.80;;;;;;;;;;4943837;29;20023;-88
2023/04/25 09:18:43;;;;;;;0.63;0.60;;;;;;;;;;4958095;28;20458;-87
2023/04/25 09:21:10;;;;;;;2.40;1.10;;;;;;;;;;4950455;28;20075;-89
2023/04/25 09:23:41;;;;;;;0.63;0.63;;;;;;;;;;4936790;28;20668;-80
2023/04/25 09:26:08;;;;;;;0.63;0.63;;;;;;;;;;4941332;28;20241;-80
2023/04/25 09:28:35;;;;;;;3.40;0.90;;;;;;;;;;4940242;28;20077;-80
2023/04/25 09:31:01;;;;;;;3.80;0.88;;;;;;;;;;4949542;28;20229;-80
2023/04/25 09:33:32;;;;;;;1.10;0.63;;;;;;;;;;4948633;28;20454;-79
2023/04/25 09:36:04;;;;;;;2.27;0.70;;;;;;;;;;4951426;28;20020;-80
2023/04/25 09:38:30;;;;;;;0.50;0.50;;;;;;;;;;4950178;29;20633;-80
2023/04/25 09:40:57;;;;;;;1.38;0.90;;;;;;;;;;4950423;28;20083;-80
2023/04/25 09:43:23;;;;;;;0.80;0.60;;;;;;;;;;4948995;28;20052;-80
2023/04/25 09:45:51;;;;;;;3.60;1.20;;;;;;;;;;4951372;28;20370;-80
2023/04/25 09:48:22;;;;;;;3.33;0.52;;;;;;;;;;4951095;28;20062;-80
2023/04/25 09:51:07;;;;;;;2.17;0.63;;;;;;;;;;4948504;28;20438;-80
2023/04/25 09:53:34;;;;;;;0.82;0.70;;;;;;;;;;4949353;28;20135;-80
2023/04/25 09:56:00;;;;;;;2.10;0.82;;;;;;;;;;4950090;28;20028;-80
2023/04/25 09:58:29;;;;;;;0.43;0.43;;;;;;;;;;4948992;29;20435;-79
2023/04/25 10:00:56;;;;;;;1.25;0.80;;;;;;;;;;4939651;28;20039;-80
2023/04/25 10:03:25;;;;;;;1.98;1.15;;;;;;;;;;4943526;28;20038;-79
2023/04/25 10:05:52;;;;;;;0.70;0.57;;;;;;;;;;4951151;28;20144;-79
2023/04/25 10:08:18;;;;;;;1.30;0.60;;;;;;;;;;4943372;28;20600;-80
2023/04/25 10:10:44;;;;;;;1.60;0.80;;;;;;;;;;4951133;29;20479;-79
2023/04/25 10:13:14;;;;;;;1.75;1.25;;;;;;;;;;4950711;28;20031;-80
2023/04/25 10:15:40;;;;;;;0.63;0.60;;;;;;;;;;4943915;29;20028;-79
2023/04/25 10:18:06;;;;;;;0.70;0.50;;;;;;;;;;4948869;28;20087;-79
2023/04/25 10:20:33;;;;;;;1.17;0.63;;;;;;;;;;4950263;28;20386;-79
2023/04/25 10:23:07;;;;;;;2.63;1.02;;;;;;;;;;4949059;28;20058;-80
2023/04/25 10:25:34;;;;;;;1.42;0.90;;;;;;;;;;4950979;28;20038;-80
2023/04/25 10:28:02;;;;;;;3.45;0.95;;;;;;;;;;4951034;28;20099;-77
2023/04/25 10:30:28;;;;;;;0.82;0.68;;;;;;;;;;4949760;28;20024;-79
2023/04/25 10:32:55;;;;;;;3.60;0.73;;;;;;;;;;4948847;28;20035;-77
2023/04/25 10:35:25;;;;;;;1.25;0.73;;;;;;;;;;4951666;28;20435;-80
2023/04/25 10:38:04;;;;;;;1.13;0.57;;;;;;;;;;4951009;28;20031;-79
2023/04/25 10:40:30;;;;;;;1.80;1.02;;;;;;;;;;4951454;28;20030;-80
2023/04/25 10:42:56;;;;;;;3.65;1.00;;;;;;;;;;4944135;28;20039;-80
2023/04/25 10:45:22;;;;;;;0.70;0.70;;;;;;;;;;4949512;28;20038;-79
2023/04/25 10:47:48;;;;;;;0.82;0.80;;;;;;;;;;4950288;28;20316;-79
2023/04/25 10:50:18;;;;;;;1.27;0.68;;;;;;;;;;4950888;28;20031;-79
2023/04/25 10:52:44;;;;;;;1.80;1.00;;;;;;;;;;4949002;28;20159;-77
2023/04/25 10:55:10;;;;;;;0.82;0.80;;;;;;;;;;4945698;28;20116;-78
2023/04/25 10:57:38;;;;;;;0.70;0.60;;;;;;;;;;4946996;28;20028;-78
2023/04/25 11:00:11;;;;;;;0.90;0.50;;;;;;;;;;4950754;28;20034;-78
2023/04/25 11:02:48;;;;;;;1.17;0.63;;;;;;;;;;4949044;28;20031;-77
2023/04/25 11:05:29;;;;;;;1.25;0.60;;;;;;;;;;4950893;28;20055;-78
2023/04/25 11:07:59;;;;;;;0.85;0.85;;;;;;;;;;4940341;28;21230;-78
2023/04/25 11:10:29;;;;;;;0.80;0.55;;;;;;;;;;4950160;28;20038;-77
2023/04/25 11:12:55;;;;;;;2.55;0.63;;;;;;;;;;4949217;28;20034;-77
2023/04/25 11:15:21;;;;;;;1.00;0.60;;;;;;;;;;4949756;28;20035;-77
2023/04/25 11:17:47;;;;;;;1.00;0.55;;;;;;;;;;4947137;29;20163;-78
2023/04/25 11:20:15;;;;;;;2.28;1.23;;;;;;;;;;4949490;28;20172;-78
2023/04/25 11:22:41;;;;;;;1.10;0.82;;;;;;;;;;4949751;28;20474;-75
2023/04/25 11:25:08;;;;;;;4.22;1.45;;;;;;;;;;4945683;28;20035;-78
2023/04/25 11:27:34;;;;;;;0.50;0.50;;;;;;;;;;4950567;28;20038;-77
2023/04/25 11:30:10;;;;;;;1.63;0.80;;;;;;;;;;4947384;28;20253;-78
2023/04/25 11:32:36;;;;;;;3.80;0.80;;;;;;;;;;4947723;28;20126;-77
2023/04/25 11:35:02;;;;;;;0.85;0.50;;;;;;;;;;4948419;28;20410;-78
2023/04/25 11:37:28;;;;;;;0.77;0.55;;;;;;;;;;4963487;28;20499;-77
2023/04/25 11:39:54;;;;;;;2.10;0.73;;;;;;;;;;4930967;28;20036;-78
2023/04/25 11:42:20;;;;;;;0.60;0.60;;;;;;;;;;4947177;28;20054;-77
2023/04/25 11:44:46;;;;;;;0.80;0.63;;;;;;;;;;4947987;28;20031;-77
2023/04/25 11:47:12;;;;;;;2.33;0.98;;;;;;;;;;4944354;28;20031;-77
2023/04/25 11:49:38;;;;;;;0.60;0.60;;;;;;;;;;4948636;28;20027;-77
2023/04/25 11:52:07;;;;;;;1.95;0.45;;;;;;;;;;4949524;28;20027;-78
2023/04/25 11:54:35;;;;;;;0.57;0.50;;;;;;;;;;4949733;28;20224;-77
2023/04/25 11:57:01;;;;;;;1.80;0.95;;;;;;;;;;4948750;28;20034;-74
2023/04/25 11:59:27;;;;;;;1.58;0.57;;;;;;;;;;4946930;28;20020;-77
2023/04/25 12:01:54;;;;;;;1.02;0.50;;;;;;;;;;4947465;28;20106;-77
2023/04/25 12:04:24;;;;;;;2.65;0.70;;;;;;;;;;4948850;28;20409;-77
2023/04/25 12:06:51;;;;;;;0.68;0.68;;;;;;;;;;4948609;28;20035;-77
2023/04/25 12:09:19;;;;;;;0.82;0.80;;;;;;;;;;4947888;28;20521;-77
2023/04/25 12:11:46;;;;;;;1.42;0.70;;;;;;;;;;4947976;28;20114;-77
2023/04/25 12:14:12;;;;;;;3.63;0.90;;;;;;;;;;4948511;28;20441;-77
2023/04/25 12:16:47;;;;;;;0.80;0.80;;;;;;;;;;4949377;28;20027;-77
2023/04/25 12:19:16;;;;;;;0.43;0.43;;;;;;;;;;4948241;28;20470;-77
2023/04/25 12:21:42;;;;;;;0.82;0.80;;;;;;;;;;4947950;28;20110;-77
2023/04/25 12:24:19;;;;;;;1.27;0.80;;;;;;;;;;4947576;28;20522;-77
2023/04/25 12:26:59;;;;;;;1.63;0.40;;;;;;;;;;4947696;28;20042;-77
2023/04/25 12:29:26;;;;;;;0.45;0.45;;;;;;;;;;4942919;28;20494;-77
2023/04/25 12:31:53;;;;;;;0.43;0.43;;;;;;;;;;4948244;28;20027;-77
2023/04/25 12:34:19;;;;;;;0.52;0.52;;;;;;;;;;4945957;28;20023;-77
2023/04/25 12:36:45;;;;;;;0.75;0.60;;;;;;;;;;4948584;28;20039;-77
2023/04/25 12:39:17;;;;;;;1.70;0.70;;;;;;;;;;4947039;28;20019;-77
2023/04/25 12:41:45;;;;;;;1.20;0.80;;;;;;;;;;4935949;28;20027;-77
2023/04/25 12:44:11;;;;;;;3.35;0.70;;;;;;;;;;4946329;28;20114;-78
2023/04/25 12:46:37;;;;;;;0.90;0.55;;;;;;;;;;4946573;28;20042;-80
2023/04/25 12:49:04;;;;;;;0.68;0.68;;;;;;;;;;4948573;28;20062;-80
2023/04/25 12:51:32;;;;;;;0.98;0.63;;;;;;;;;;4948640;28;20095;-77
2023/04/25 12:53:58;;;;;;;1.65;0.63;;;;;;;;;;4948714;28;20027;-77
2023/04/25 12:56:25;;;;;;;3.92;0.90;;;;;;;;;;4943276;28;20580;-78
2023/04/25 12:58:52;;;;;;;1.70;1.05;;;;;;;;;;4949028;28;21339;-79
2023/04/25 13:01:18;;;;;;;0.98;0.50;;;;;;;;;;4947831;28;20024;-80
2023/04/25 13:03:44;;;;;;;1.00;0.52;;;;;;;;;;4942568;28;20038;-79
2023/04/25 13:06:10;;;;;;;2.25;0.82;;;;;;;;;;4945850;28;20043;-79
2023/04/25 13:08:38;;;;;;;0.50;0.50;;;;;;;;;;4942275;28;20039;-80
2023/04/25 13:11:04;;;;;;;5.25;0.70;;;;;;;;;;4945019;28;20156;-79
2023/04/25 13:13:31;;;;;;;2.67;0.43;;;;;;;;;;4948786;28;20082;-79
2023/04/25 13:15:57;;;;;;;0.77;0.77;;;;;;;;;;4949071;28;20020;-79
2023/04/25 13:18:26;;;;;;;1.48;0.63;;;;;;;;;;4926005;29;20126;-79
2023/04/25 13:20:53;;;;;;;4.00;0.90;;;;;;;;;;4934270;28;20122;-79
2023/04/25 13:23:19;;;;;;;1.25;0.80;;;;;;;;;;4944931;28;20062;-79
2023/04/25 13:25:45;;;;;;;0.70;0.57;;;;;;;;;;4946532;28;20046;-83
2023/04/25 13:28:11;;;;;;;0.80;0.70;;;;;;;;;;4945017;28;20490;-81
2023/04/25 13:30:37;;;;;;;0.60;0.60;;;;;;;;;;4941112;28;20035;-83
2023/04/25 13:33:03;;;;;;;4.00;0.50;;;;;;;;;;4946879;28;20023;-86
2023/04/25 13:35:29;;;;;;;1.92;0.93;;;;;;;;;;4927753;29;20290;-78
2023/04/25 13:37:56;;;;;;;0.40;0.40;;;;;;;;;;4942241;28;20471;-82
2023/04/25 13:40:22;;;;;;;1.27;0.60;;;;;;;;;;4940309;28;20054;-80
2023/04/25 13:42:48;;;;;;;0.60;0.60;;;;;;;;;;4944254;28;20138;-82
2023/04/25 13:45:20;;;;;;;1.60;0.80;;;;;;;;;;4936875;28;20519;-82
2023/04/25 13:47:54;;;;;;;3.33;1.70;;;;;;;;;;4937393;28;20130;-80
2023/04/25 13:50:21;;;;;;;15.77;6.80;;;;;;;;;;4952634;28;20032;-87
2023/04/25 13:52:47;;;;;;;10.30;5.15;;;;;;;;;;4946597;28;20024;-89
2023/04/25 13:55:13;;;;;;;5.80;3.85;;;;;;;;;;4949640;28;20019;-81
2023/04/25 13:57:39;;;;;;;21.92;8.18;;;;;;;;;;4941703;28;20087;-82
2023/04/25 14:00:08;;;;;;;15.23;8.60;;;;;;;;;;4946307;29;20450;-87
2023/04/25 14:02:38;;;;;;;13.88;6.00;;;;;;;;;;4949412;28;20039;-84
2023/04/25 14:05:04;;;;;;;13.18;5.32;;;;;;;;;;4926322;28;20131;-83
2023/04/25 14:07:30;;;;;;;15.30;5.93;;;;;;;;;;4951010;28;20411;-84
2023/04/25 14:09:59;;;;;;;12.93;5.05;;;;;;;;;;4942489;28;20114;-80
2023/04/25 14:12:26;;;;;;;13.90;6.47;;;;;;;;;;4941429;28;20027;-84
2023/04/25 14:14:52;;;;;;;9.38;4.20;;;;;;;;;;4943747;28;20031;-82
2023/04/25 14:17:19;;;;;;;13.00;4.05;;;;;;;;;;4939895;28;20024;-83
2023/04/25 14:19:47;;;;;;;15.73;4.82;;;;;;;;;;4944184;28;20038;-80
2023/04/25 14:22:13;;;;;;;8.73;4.88;;;;;;;;;;4947657;29;20027;-79
2023/04/25 14:24:39;;;;;;;7.32;4.15;;;;;;;;;;4951104;28;20038;-82
2023/04/25 14:27:05;;;;;;;9.07;4.20;;;;;;;;;;4951546;28;20031;-81
2023/04/25 14:29:31;;;;;;;7.28;4.07;;;;;;;;;;4945583;28;20082;-82
2023/04/25 14:31:58;;;;;;;6.30;3.83;;;;;;;;;;4946688;28;20434;-81
2023/04/25 14:34:25;;;;;;;10.23;4.55;;;;;;;;;;4945074;28;20023;-83
2023/04/25 14:36:52;;;;;;;7.20;3.60;;;;;;;;;;4943112;28;20031;-85
2023/04/25 14:39:18;;;;;;;6.65;4.05;;;;;;;;;;4949395;28;20030;-89